Time;durP1;ratioP1;P1;durP2;ratioP2;P2;SDS_P1;SDS_P2;PMS_P1;PMS_P2;Temp;Humidity;BMP_temperature;BMP_pressure;BME280_temperature;BME280_humidity;BME280_pressure;Samples;Min_cycle;Max_cycle;Signal;HPM_P1;HPM_P2
2021/03/21 00:01:41;;;;;;;1.27;0.90;;;23.40;39.60;;;;;;5070640;28;20052;-39
2021/03/21 00:04:11;;;;;;;1.23;1.00;;;23.40;39.60;;;;;;5072292;28;20131;-40
2021/03/21 00:06:37;;;;;;;1.35;1.00;;;23.40;39.60;;;;;;5082524;28;20055;-40
2021/03/21 00:09:05;;;;;;;1.10;0.90;;;23.40;39.60;;;;;;5070963;28;20059;-43
2021/03/21 00:11:32;;;;;;;1.48;0.95;;;23.40;39.60;;;;;;5071596;28;20051;-41
2021/03/21 00:13:59;;;;;;;2.20;0.98;;;23.40;39.60;;;;;;5070530;28;20426;-40
2021/03/21 00:16:26;;;;;;;1.40;0.80;;;23.40;39.60;;;;;;5071297;28;20050;-40
2021/03/21 00:18:53;;;;;;;2.53;1.10;;;23.40;39.60;;;;;;5070704;28;20040;-44
2021/03/21 00:21:20;;;;;;;2.15;1.08;;;23.40;39.60;;;;;;5071685;28;20045;-40
2021/03/21 00:23:46;;;;;;;1.95;1.17;;;23.30;39.50;;;;;;5071682;28;20416;-40
2021/03/21 00:26:13;;;;;;;1.45;0.95;;;23.30;39.50;;;;;;5070153;28;20045;-39
2021/03/21 00:28:41;;;;;;;1.27;0.90;;;23.40;39.60;;;;;;5071667;28;20060;-42
2021/03/21 00:31:11;;;;;;;1.55;1.10;;;23.30;39.50;;;;;;5070038;28;20074;-40
2021/03/21 00:33:39;;;;;;;1.25;1.00;;;23.30;39.50;;;;;;5069977;28;20124;-40
2021/03/21 00:36:08;;;;;;;1.70;1.05;;;23.30;39.50;;;;;;5070230;28;20052;-40
2021/03/21 00:38:38;;;;;;;1.75;1.00;;;23.30;39.60;;;;;;5070191;28;20048;-40
2021/03/21 00:41:07;;;;;;;1.67;0.95;;;23.40;39.60;;;;;;5069866;28;20389;-39
2021/03/21 00:43:34;;;;;;;1.27;0.90;;;23.30;39.60;;;;;;5070296;28;20044;-40
2021/03/21 00:46:02;;;;;;;1.25;0.95;;;23.40;39.60;;;;;;5070273;28;20071;-40
2021/03/21 00:48:34;;;;;;;1.63;1.08;;;23.40;39.60;;;;;;5069953;28;20127;-40
2021/03/21 00:51:01;;;;;;;0.90;0.80;;;23.40;39.60;;;;;;5070233;28;20136;-39
2021/03/21 00:53:28;;;;;;;1.27;0.90;;;23.30;39.50;;;;;;5070192;28;20522;-40
2021/03/21 00:55:56;;;;;;;1.48;1.08;;;23.40;39.60;;;;;;5072302;28;20055;-39
2021/03/21 00:58:23;;;;;;;1.25;0.90;;;23.30;39.60;;;;;;5071239;28;20045;-39
2021/03/21 01:00:53;;;;;;;1.83;0.95;;;23.40;39.60;;;;;;5071201;28;20080;-39
2021/03/21 01:03:21;;;;;;;1.17;0.80;;;23.30;39.60;;;;;;5071176;28;20113;-39
2021/03/21 01:06:04;;;;;;;2.03;1.20;;;23.30;39.60;;;;;;5075200;28;20040;-39
2021/03/21 01:08:37;;;;;;;1.40;1.10;;;23.30;39.60;;;;;;5069747;28;20057;-40
2021/03/21 01:11:06;;;;;;;1.05;0.80;;;23.30;39.60;;;;;;5069853;28;20135;-39
2021/03/21 01:13:35;;;;;;;1.67;1.10;;;23.30;39.60;;;;;;5071124;28;20059;-39
2021/03/21 01:16:09;;;;;;;1.20;0.90;;;23.30;39.60;;;;;;5071283;28;20052;-41
2021/03/21 01:18:40;;;;;;;1.33;0.82;;;23.30;39.60;;;;;;5072495;28;20498;-40
2021/03/21 01:21:11;;;;;;;2.35;1.10;;;23.30;39.60;;;;;;5069773;28;20049;-40
2021/03/21 01:23:39;;;;;;;1.55;1.13;;;23.30;39.60;;;;;;5071179;28;20045;-39
2021/03/21 01:26:06;;;;;;;1.35;0.82;;;23.30;39.60;;;;;;5071331;28;20407;-39
2021/03/21 01:28:36;;;;;;;1.52;0.98;;;23.30;39.60;;;;;;5070637;28;20436;-40
2021/03/21 01:31:05;;;;;;;1.05;0.80;;;23.30;39.60;;;;;;5072192;28;20071;-40
2021/03/21 01:33:33;;;;;;;1.50;1.00;;;23.30;39.60;;;;;;5073485;28;20051;-41
2021/03/21 01:36:01;;;;;;;1.67;0.90;;;23.30;39.60;;;;;;5074553;28;20060;-40
2021/03/21 01:38:28;;;;;;;1.40;1.10;;;23.30;39.60;;;;;;5074905;28;20060;-40
2021/03/21 01:40:59;;;;;;;1.33;1.08;;;23.30;39.60;;;;;;5073439;28;20075;-42
2021/03/21 01:43:34;;;;;;;1.40;0.95;;;23.30;39.60;;;;;;5074848;28;20064;-39
2021/03/21 01:46:02;;;;;;;1.38;0.95;;;23.30;39.60;;;;;;5074565;28;20048;-39
2021/03/21 01:48:53;;;;;;;1.65;1.15;;;23.30;39.60;;;;;;5073245;28;20111;-40
2021/03/21 01:51:29;;;;;;;1.60;0.80;;;23.30;39.60;;;;;;5074718;28;20041;-41
2021/03/21 01:53:59;;;;;;;1.00;0.90;;;23.30;39.60;;;;;;5073230;28;20048;-40
2021/03/21 01:56:27;;;;;;;2.08;1.20;;;23.20;39.50;;;;;;5073017;28;20051;-39
2021/03/21 01:59:10;;;;;;;1.17;1.00;;;23.30;39.60;;;;;;5073927;28;20041;-40
2021/03/21 02:01:37;;;;;;;1.35;1.10;;;23.30;39.60;;;;;;5071717;28;20048;-40
2021/03/21 02:04:05;;;;;;;1.17;0.88;;;23.30;39.60;;;;;;5072878;28;20083;-39
2021/03/21 02:06:39;;;;;;;1.25;1.00;;;23.30;39.60;;;;;;5074848;28;20045;-41
2021/03/21 02:09:05;;;;;;;;;;;23.20;39.60;;;;;;5073367;28;20041;-40
2021/03/21 02:11:49;;;;;;;1.15;0.90;;;23.20;39.50;;;;;;5074859;28;19928;-39
2021/03/21 02:14:27;;;;;;;1.08;0.98;;;23.20;40.20;;;;;;5073002;28;20054;-39
2021/03/21 02:17:13;;;;;;;1.20;1.00;;;23.20;39.60;;;;;;5071315;28;20045;-39
2021/03/21 02:19:45;;;;;;;1.60;1.17;;;23.20;39.60;;;;;;5072542;28;20066;-40
2021/03/21 02:22:22;;;;;;;1.52;1.20;;;23.20;39.60;;;;;;5072766;28;20080;-39
2021/03/21 02:25:23;;;;;;;1.27;1.02;;;23.20;39.60;;;;;;5072927;28;20049;-39
2021/03/21 02:28:13;;;;;;;1.15;1.00;;;23.20;39.60;;;;;;5059499;28;20056;-39
2021/03/21 02:30:46;;;;;;;1.25;0.90;;;23.20;39.60;;;;;;5070646;28;20048;-39
2021/03/21 02:33:27;;;;;;;1.30;0.95;;;23.20;39.60;;;;;;5072264;28;20048;-39
2021/03/21 02:36:10;;;;;;;1.27;0.90;;;23.20;39.60;;;;;;5072636;28;20127;-40
2021/03/21 02:38:49;;;;;;;2.10;1.30;;;23.20;39.60;;;;;;5073356;28;20036;-41
2021/03/21 02:41:35;;;;;;;1.48;0.90;;;23.20;39.60;;;;;;5073199;28;20083;-40
2021/03/21 02:44:10;;;;;;;1.00;0.90;;;23.20;39.60;;;;;;5072039;28;20052;-39
2021/03/21 02:46:42;;;;;;;1.40;0.93;;;23.20;39.60;;;;;;5072188;28;20045;-40
2021/03/21 02:49:15;;;;;;;1.45;0.98;;;23.20;39.60;;;;;;5073303;28;20044;-40
2021/03/21 02:51:47;;;;;;;1.38;1.10;;;23.20;39.60;;;;;;5073400;28;20054;-39
2021/03/21 02:54:26;;;;;;;1.42;0.90;;;23.20;39.60;;;;;;5073155;28;20067;-39
2021/03/21 02:57:02;;;;;;;1.55;0.90;;;23.20;39.60;;;;;;5072553;28;20049;-39
2021/03/21 02:59:34;;;;;;;1.25;1.00;;;23.20;39.60;;;;;;5072886;28;20059;-40
2021/03/21 03:02:17;;;;;;;1.58;1.00;;;23.20;39.60;;;;;;5071219;28;20503;-39
2021/03/21 03:04:49;;;;;;;1.53;1.20;;;23.20;39.60;;;;;;5071986;28;20052;-39
2021/03/21 03:07:21;;;;;;;2.05;1.00;;;23.20;39.60;;;;;;5073308;28;20079;-39
2021/03/21 03:09:52;;;;;;;1.45;1.10;;;23.20;39.60;;;;;;5071629;28;20056;-39
2021/03/21 03:12:32;;;;;;;1.30;1.00;;;23.20;39.60;;;;;;5072552;28;20055;-39
2021/03/21 03:15:01;;;;;;;1.52;1.10;;;23.10;39.40;;;;;;5072829;28;20048;-39
2021/03/21 03:18:04;;;;;;;1.58;0.90;;;23.20;39.60;;;;;;5071423;28;20048;-39
2021/03/21 03:20:37;;;;;;;1.05;0.90;;;23.10;39.50;;;;;;5029227;28;20076;-40
2021/03/21 03:23:26;;;;;;;1.23;1.10;;;23.20;39.60;;;;;;5029326;28;20049;-41
2021/03/21 03:25:58;;;;;;;1.20;0.88;;;23.10;39.50;;;;;;5029355;28;20076;-40
2021/03/21 03:28:33;;;;;;;1.70;0.90;;;23.10;39.50;;;;;;5028970;28;20139;-42
2021/03/21 03:31:04;;;;;;;1.50;1.20;;;23.10;39.50;;;;;;5027282;28;20059;-39
2021/03/21 03:33:30;;;;;;;1.50;1.00;;;23.10;39.50;;;;;;5028862;28;20132;-42
2021/03/21 03:35:57;;;;;;;2.15;0.95;;;23.10;39.50;;;;;;5029143;28;20049;-40
2021/03/21 03:38:24;;;;;;;1.38;1.00;;;23.10;39.50;;;;;;5029201;28;20147;-39
2021/03/21 03:40:53;;;;;;;1.35;1.00;;;23.20;39.60;;;;;;5029730;28;20050;-40
2021/03/21 03:43:56;;;;;;;2.08;1.05;;;23.10;39.50;;;;;;5029905;28;20068;-40
2021/03/21 03:46:32;;;;;;;1.42;0.98;;;23.10;39.50;;;;;;5046582;28;20037;-39
2021/03/21 03:49:24;;;;;;;1.58;1.00;;;23.10;39.50;;;;;;5029900;28;20497;-40
2021/03/21 03:51:57;;;;;;;1.25;0.95;;;23.10;39.50;;;;;;5028082;28;20064;-40
2021/03/21 03:54:34;;;;;;;1.33;1.10;;;23.10;39.60;;;;;;5028714;28;20042;-39
2021/03/21 03:57:10;;;;;;;1.60;0.90;;;23.10;39.50;;;;;;5048338;28;20439;-40
2021/03/21 04:00:04;;;;;;;1.02;0.90;;;23.10;39.50;;;;;;5071485;28;20139;-39
2021/03/21 04:02:42;;;;;;;1.40;1.00;;;23.10;39.50;;;;;;5071963;28;20045;-40
2021/03/21 04:05:42;;;;;;;1.10;0.90;;;23.10;39.50;;;;;;5070395;28;20096;-40
2021/03/21 04:08:23;;;;;;;1.30;1.00;;;23.10;39.50;;;;;;5060109;28;20049;-39
2021/03/21 04:11:40;;;;;;;1.92;1.20;;;23.10;39.50;;;;;;5070856;28;20056;-42
2021/03/21 04:14:14;;;;;;;1.52;0.98;;;23.10;39.50;;;;;;5028392;28;20049;-40
2021/03/21 04:16:54;;;;;;;1.33;1.00;;;23.10;39.50;;;;;;5029483;28;20540;-40
2021/03/21 04:19:28;;;;;;;1.63;1.00;;;23.10;39.50;;;;;;5029307;28;20501;-40
2021/03/21 04:21:57;;;;;;;1.02;0.93;;;23.10;39.50;;;;;;5029355;28;20060;-40
2021/03/21 04:24:34;;;;;;;0.98;0.77;;;23.10;39.50;;;;;;5029257;28;20052;-40
2021/03/21 04:27:30;;;;;;;1.10;0.95;;;23.00;39.50;;;;;;5027767;28;20057;-39
2021/03/21 04:30:17;;;;;;;1.00;0.80;;;23.00;39.40;;;;;;5029414;28;20053;-40
2021/03/21 04:32:48;;;;;;;1.27;0.98;;;23.00;39.40;;;;;;5019965;28;20107;-41
2021/03/21 04:35:44;;;;;;;2.05;1.20;;;23.00;39.40;;;;;;5012169;28;20053;-40
2021/03/21 04:38:16;;;;;;;1.75;1.33;;;23.00;39.50;;;;;;5019515;28;20058;-40
2021/03/21 04:40:44;;;;;;;1.88;1.30;;;23.00;39.40;;;;;;5028094;28;20065;-39
2021/03/21 04:43:19;;;;;;;2.05;0.90;;;23.10;39.60;;;;;;5030432;28;20077;-40
2021/03/21 04:45:51;;;;;;;1.70;1.00;;;23.00;39.40;;;;;;5065975;28;20045;-40
2021/03/21 04:48:23;;;;;;;1.38;1.10;;;23.00;39.50;;;;;;5070099;28;20052;-40
2021/03/21 04:50:59;;;;;;;1.02;0.80;;;23.00;39.50;;;;;;5070333;28;20683;-40
2021/03/21 04:53:29;;;;;;;1.23;0.90;;;23.00;39.50;;;;;;5070224;28;20049;-40
2021/03/21 04:56:02;;;;;;;1.40;1.10;;;23.00;39.50;;;;;;5070424;28;20045;-40
2021/03/21 04:58:41;;;;;;;1.20;1.05;;;23.00;39.40;;;;;;5070627;28;20048;-39
2021/03/21 05:01:13;;;;;;;1.00;0.80;;;23.00;39.50;;;;;;5070672;28;20044;-40
2021/03/21 05:03:47;;;;;;;1.35;0.93;;;23.00;39.50;;;;;;5071671;28;20048;-42
2021/03/21 05:06:18;;;;;;;2.03;1.10;;;23.00;39.50;;;;;;5082149;28;20523;-40
2021/03/21 05:08:59;;;;;;;1.02;0.90;;;23.00;39.40;;;;;;5075831;28;20059;-40
2021/03/21 05:11:36;;;;;;;1.25;0.98;;;23.00;39.40;;;;;;5073605;28;20052;-39
2021/03/21 05:14:08;;;;;;;1.73;1.05;;;23.00;39.50;;;;;;5074316;28;20044;-40
2021/03/21 05:16:55;;;;;;;1.00;0.90;;;23.00;39.50;;;;;;5074778;28;20048;-39
2021/03/21 05:19:50;;;;;;;1.13;0.95;;;23.00;39.50;;;;;;5075076;28;20048;-40
2021/03/21 05:22:55;;;;;;;1.80;1.10;;;23.00;39.50;;;;;;5074121;28;20092;-40
2021/03/21 05:25:27;;;;;;;;;;;23.00;39.40;;;;;;5074759;28;20059;-40
2021/03/21 05:28:23;;;;;;;1.05;0.90;;;23.00;39.50;;;;;;5073408;28;19920;-41
2021/03/21 05:30:59;;;;;;;1.50;0.95;;;23.00;39.50;;;;;;5072278;28;20052;-39
2021/03/21 05:33:25;;;;;;;1.40;1.10;;;23.00;39.50;;;;;;5073514;28;20048;-40
2021/03/21 05:35:56;;;;;;;1.73;0.93;;;23.00;39.50;;;;;;5072528;28;20041;-39
2021/03/21 05:38:44;;;;;;;1.35;0.90;;;23.00;39.50;;;;;;5072586;28;20075;-39
2021/03/21 05:41:48;;;;;;;1.52;1.20;;;23.00;39.50;;;;;;5072115;28;20056;-40
2021/03/21 05:44:39;;;;;;;1.43;0.87;;;23.00;39.40;;;;;;5072959;28;20048;-41
2021/03/21 05:47:18;;;;;;;1.33;0.93;;;23.00;39.40;;;;;;5072739;28;20403;-40
2021/03/21 05:50:09;;;;;;;1.00;0.80;;;23.00;39.50;;;;;;5073671;28;20048;-39
2021/03/21 05:52:52;;;;;;;2.35;1.30;;;23.00;39.40;;;;;;5056148;28;20045;-41
2021/03/21 05:55:28;;;;;;;1.50;1.02;;;23.00;39.40;;;;;;5055050;28;20049;-42
2021/03/21 05:58:42;;;;;;;1.45;0.88;;;23.00;39.40;;;;;;5072653;28;20102;-40
2021/03/21 06:01:41;;;;;;;1.17;0.85;;;23.00;39.40;;;;;;5045298;28;20045;-41
2021/03/21 06:04:35;;;;;;;1.60;1.20;;;23.00;39.40;;;;;;5032017;28;20075;-40
2021/03/21 06:07:25;;;;;;;1.30;1.00;;;23.00;39.40;;;;;;5041229;28;20049;-39
2021/03/21 06:10:13;;;;;;;1.77;1.05;;;23.00;39.40;;;;;;5048372;28;20069;-41
2021/03/21 06:12:56;;;;;;;1.65;0.93;;;23.00;39.40;;;;;;5029993;28;20045;-41
2021/03/21 06:15:49;;;;;;;1.38;0.73;;;23.00;39.40;;;;;;5038859;28;20049;-40
2021/03/21 06:18:55;;;;;;;1.50;0.90;;;23.00;39.40;;;;;;5032839;28;20049;-41
2021/03/21 06:21:36;;;;;;;1.15;0.90;;;23.00;39.30;;;;;;5007896;28;20057;-40
2021/03/21 06:24:25;;;;;;;1.40;0.77;;;23.00;39.30;;;;;;5008182;28;20046;-40
2021/03/21 06:27:17;;;;;;;1.30;0.90;;;23.00;39.30;;;;;;4997143;28;747214;-40
2021/03/21 06:30:17;;;;;;;1.27;0.82;;;23.00;39.40;;;;;;5010201;28;20057;-39
2021/03/21 06:33:08;;;;;;;1.42;1.00;;;23.00;39.30;;;;;;5011256;28;20046;-41
2021/03/21 06:35:43;;;;;;;1.20;1.10;;;23.00;39.30;;;;;;5011113;28;20155;-40
2021/03/21 06:38:35;;;;;;;1.25;1.00;;;23.00;39.30;;;;;;5029325;28;20149;-39
2021/03/21 06:41:17;;;;;;;1.30;1.00;;;23.00;39.30;;;;;;5031582;28;20049;-39
2021/03/21 06:44:03;;;;;;;1.85;1.10;;;23.00;39.30;;;;;;5031515;28;20057;-39
2021/03/21 06:46:47;;;;;;;1.00;0.90;;;23.00;39.40;;;;;;5030488;28;20041;-43
2021/03/21 06:49:39;;;;;;;1.02;0.80;;;23.00;39.30;;;;;;5030822;28;20057;-44
2021/03/21 06:52:29;;;;;;;1.58;1.10;;;23.00;39.30;;;;;;5029981;28;20046;-40
2021/03/21 06:55:09;;;;;;;1.33;1.00;;;23.00;39.20;;;;;;5029175;28;20044;-39
2021/03/21 06:58:00;;;;;;;1.60;1.05;;;23.10;39.40;;;;;;5056261;28;20453;-40
2021/03/21 07:00:52;;;;;;;2.00;1.20;;;23.00;39.30;;;;;;5056936;28;20106;-40
2021/03/21 07:03:56;;;;;;;1.10;1.00;;;23.10;39.40;;;;;;5071796;28;20102;-40
2021/03/21 07:06:41;;;;;;;1.25;0.88;;;23.10;39.30;;;;;;5072479;28;20076;-40
2021/03/21 07:09:40;;;;;;;1.40;1.05;;;23.00;39.20;;;;;;5071495;28;20064;-40
2021/03/21 07:12:44;;;;;;;1.55;1.15;;;23.10;39.30;;;;;;5071451;28;20484;-40
2021/03/21 07:15:40;;;;;;;1.52;1.10;;;23.10;39.30;;;;;;5072663;28;20132;-40
2021/03/21 07:18:26;;;;;;;1.50;1.02;;;23.10;39.30;;;;;;5071198;28;20044;-39
2021/03/21 07:21:21;;;;;;;1.50;1.00;;;23.00;39.20;;;;;;5072558;28;20431;-39
2021/03/21 07:24:19;;;;;;;1.63;1.00;;;23.10;39.30;;;;;;5072822;28;20044;-40
2021/03/21 07:27:21;;;;;;;1.63;1.20;;;23.10;39.30;;;;;;5071605;28;20052;-39
2021/03/21 07:30:26;;;;;;;1.40;0.90;;;23.10;39.30;;;;;;5071492;28;20048;-40
2021/03/21 07:33:19;;;;;;;1.20;1.10;;;23.00;39.20;;;;;;5056748;28;20121;-39
2021/03/21 07:36:01;;;;;;;1.10;0.93;;;23.10;39.30;;;;;;5071325;28;20408;-39
2021/03/21 07:38:44;;;;;;;1.42;0.80;;;23.10;39.30;;;;;;5072083;28;20498;-40
2021/03/21 07:41:24;;;;;;;1.13;0.98;;;23.10;39.30;;;;;;5071059;28;20541;-39
2021/03/21 07:44:28;;;;;;;1.25;1.10;;;23.10;39.20;;;;;;5070825;28;20052;-40
2021/03/21 07:47:06;;;;;;;3.33;1.00;;;23.10;39.20;;;;;;5028517;28;20092;-41
2021/03/21 07:50:02;;;;;;;1.67;1.15;;;23.10;39.30;;;;;;5031263;28;20382;-40
2021/03/21 07:52:54;;;;;;;1.38;1.05;;;23.10;39.20;;;;;;5027465;28;20045;-39
2021/03/21 07:55:29;;;;;;;1.42;1.02;;;23.10;39.20;;;;;;5030953;28;20140;-39
2021/03/21 07:58:07;;;;;;;1.30;1.00;;;23.10;39.20;;;;;;5028771;28;20041;-40
2021/03/21 08:00:35;;;;;;;1.73;1.13;;;23.10;39.20;;;;;;5022076;28;20041;-39
2021/03/21 08:03:22;;;;;;;1.13;0.93;;;23.10;39.20;;;;;;5029399;28;20464;-41
2021/03/21 08:05:54;;;;;;;0.73;0.70;;;23.10;39.20;;;;;;5028234;28;20052;-39
2021/03/21 08:08:27;;;;;;;0.77;0.77;;;23.10;39.20;;;;;;5029771;28;20410;-39
2021/03/21 08:10:58;;;;;;;1.25;0.98;;;23.10;39.20;;;;;;5028480;28;20049;-40
2021/03/21 08:13:39;;;;;;;1.25;0.90;;;23.10;39.20;;;;;;5027606;28;20050;-39
2021/03/21 08:16:28;;;;;;;1.60;1.15;;;23.10;39.20;;;;;;5028283;28;20045;-39
2021/03/21 08:18:58;;;;;;;1.27;0.90;;;23.10;39.20;;;;;;5029682;28;20493;-40
2021/03/21 08:21:33;;;;;;;1.30;0.85;;;23.10;39.20;;;;;;5032048;28;20077;-40
2021/03/21 08:24:14;;;;;;;1.33;1.00;;;23.20;39.20;;;;;;5071462;28;20546;-40
2021/03/21 08:26:43;;;;;;;2.10;1.10;;;23.10;39.20;;;;;;5070045;28;20094;-39
2021/03/21 08:29:23;;;;;;;1.45;1.10;;;23.10;39.10;;;;;;5071316;28;20067;-40
2021/03/21 08:32:02;;;;;;;1.00;0.90;;;23.10;39.10;;;;;;5068260;28;20045;-40
2021/03/21 08:34:32;;;;;;;2.28;1.00;;;23.10;39.20;;;;;;5086415;28;20044;-39
2021/03/21 08:37:19;;;;;;;1.60;1.10;;;23.20;39.20;;;;;;5071379;28;20546;-39
2021/03/21 08:40:02;;;;;;;0.98;0.80;;;23.10;39.10;;;;;;5045550;28;20045;-39
2021/03/21 08:42:39;;;;;;;1.90;1.07;;;23.20;39.20;;;;;;5071208;28;20052;-40
2021/03/21 08:45:29;;;;;;;1.42;1.00;;;23.20;39.20;;;;;;5071664;28;20048;-40
2021/03/21 08:48:16;;;;;;;1.35;0.95;;;23.20;39.20;;;;;;5071405;28;20048;-40
2021/03/21 08:51:16;;;;;;;1.67;1.20;;;23.20;39.20;;;;;;5054984;28;20048;-39
2021/03/21 08:54:13;;;;;;;1.55;1.00;;;23.10;39.10;;;;;;5070045;28;20048;-40
2021/03/21 08:56:58;;;;;;;1.10;0.85;;;23.20;39.20;;;;;;5057517;28;20385;-42
2021/03/21 08:59:46;;;;;;;1.00;0.80;;;23.20;39.20;;;;;;5069919;28;20041;-42
2021/03/21 09:02:14;;;;;;;1.38;0.90;;;23.20;39.20;;;;;;5070434;28;20511;-42
2021/03/21 09:04:41;;;;;;;1.10;1.00;;;23.20;39.20;;;;;;5070934;28;20045;-39
2021/03/21 09:07:29;;;;;;;1.73;0.95;;;23.20;39.20;;;;;;5083550;28;20113;-41
2021/03/21 09:10:11;;;;;;;1.10;0.95;;;23.20;39.20;;;;;;5055174;28;20056;-42
2021/03/21 09:12:40;;;;;;;1.25;1.08;;;23.20;39.10;;;;;;5055120;28;20048;-42
2021/03/21 09:15:17;;;;;;;1.67;0.90;;;23.20;39.10;;;;;;5054154;28;20412;-41
2021/03/21 09:18:00;;;;;;;1.00;0.70;;;23.20;39.20;;;;;;5070473;28;20040;-42
2021/03/21 09:20:27;;;;;;;1.73;0.82;;;23.20;39.20;;;;;;5070553;28;20067;-43
2021/03/21 09:22:55;;;;;;;1.48;0.93;;;23.20;39.10;;;;;;5071124;28;20053;-40
2021/03/21 09:25:29;;;;;;;1.52;1.00;;;23.20;39.10;;;;;;5069202;28;20048;-39
2021/03/21 09:27:57;;;;;;;1.10;0.80;;;23.20;39.20;;;;;;5070611;28;20084;-40
2021/03/21 09:30:45;;;;;;;1.73;1.10;;;23.20;39.10;;;;;;5068049;28;20519;-39
2021/03/21 09:33:17;;;;;;;1.35;0.90;;;23.20;39.10;;;;;;5069688;28;20044;-39
2021/03/21 09:36:22;;;;;;;1.10;0.80;;;23.20;39.10;;;;;;5069861;28;20076;-40
2021/03/21 09:38:59;;;;;;;1.55;1.10;;;23.20;39.10;;;;;;5069489;28;20052;-40
2021/03/21 09:41:28;;;;;;;1.45;1.00;;;23.20;39.10;;;;;;5071430;28;20385;-40
2021/03/21 09:44:05;;;;;;;1.55;1.10;;;23.20;39.10;;;;;;5069938;28;20511;-40
2021/03/21 09:46:44;;;;;;;1.20;1.00;;;23.20;39.10;;;;;;5069396;28;20049;-40
2021/03/21 09:49:26;;;;;;;1.10;0.90;;;23.20;39.10;;;;;;5069561;28;20040;-39
2021/03/21 09:52:22;;;;;;;1.85;1.05;;;23.20;39.10;;;;;;5074602;28;20041;-39
2021/03/21 09:55:13;;;;;;;1.05;0.80;;;23.20;39.10;;;;;;5073346;28;20055;-39
2021/03/21 09:57:55;;;;;;;2.28;1.00;;;23.20;39.10;;;;;;5072963;28;20079;-39
2021/03/21 10:00:27;;;;;;;1.27;1.00;;;23.20;39.10;;;;;;5073111;28;20558;-40
2021/03/21 10:03:31;;;;;;;1.60;1.20;;;23.20;39.10;;;;;;5072944;28;20048;-39
2021/03/21 10:06:01;;;;;;;1.08;0.82;;;23.20;39.10;;;;;;5079004;28;20048;-39
2021/03/21 10:08:50;;;;;;;1.05;0.88;;;23.20;39.10;;;;;;5072549;28;20076;-41
2021/03/21 10:11:29;;;;;;;1.80;1.00;;;23.20;39.10;;;;;;5072955;28;20060;-39
2021/03/21 10:13:56;;;;;;;1.25;1.02;;;23.20;39.10;;;;;;5073102;28;20044;-39
2021/03/21 10:16:26;;;;;;;1.20;0.82;;;23.20;39.10;;;;;;5072500;28;20052;-40
2021/03/21 10:19:00;;;;;;;1.10;0.70;;;23.20;39.10;;;;;;5072718;28;20049;-39
2021/03/21 10:21:26;;;;;;;1.00;0.90;;;23.20;39.10;;;;;;5072992;28;20072;-40
2021/03/21 10:24:00;;;;;;;1.35;0.90;;;23.20;39.10;;;;;;5074033;28;20044;-39
2021/03/21 10:26:30;;;;;;;1.05;0.77;;;23.20;39.10;;;;;;5073658;28;20040;-40
2021/03/21 10:29:22;;;;;;;1.40;1.02;;;23.20;39.10;;;;;;5072191;28;20060;-40
2021/03/21 10:32:08;;;;;;;1.65;1.10;;;23.20;39.70;;;;;;5070544;28;20864;-39
2021/03/21 10:34:39;;;;;;;1.30;1.02;;;23.20;39.10;;;;;;5072486;28;20044;-39
2021/03/21 10:37:09;;;;;;;0.85;0.82;;;23.20;39.10;;;;;;5072352;28;20048;-39
2021/03/21 10:39:40;;;;;;;1.92;1.17;;;23.20;39.10;;;;;;5072476;28;20148;-39
2021/03/21 10:42:38;;;;;;;1.33;1.10;;;23.20;39.10;;;;;;5072369;28;20059;-39
2021/03/21 10:45:08;;;;;;;1.00;0.90;;;23.20;39.10;;;;;;5073816;28;20459;-39
2021/03/21 10:47:40;;;;;;;0.95;0.77;;;23.20;39.10;;;;;;5073434;28;20415;-39
2021/03/21 10:50:30;;;;;;;1.40;1.10;;;23.20;39.10;;;;;;5071975;28;20127;-39
2021/03/21 10:53:23;;;;;;;2.83;1.10;;;23.20;39.10;;;;;;5072359;28;20041;-39
2021/03/21 10:56:08;;;;;;;1.65;1.00;;;23.20;39.10;;;;;;5072212;28;20044;-39
2021/03/21 10:58:54;;;;;;;1.25;0.90;;;23.20;39.10;;;;;;5071861;28;20442;-40
2021/03/21 11:01:26;;;;;;;1.25;1.00;;;23.30;39.20;;;;;;5072840;28;20051;-41
2021/03/21 11:04:16;;;;;;;1.88;1.00;;;23.20;39.10;;;;;;5073003;28;20442;-40
2021/03/21 11:06:58;;;;;;;1.55;0.90;;;23.20;39.10;;;;;;5071692;28;20048;-40
2021/03/21 11:09:35;;;;;;;1.30;0.88;;;23.30;39.20;;;;;;5072896;28;20059;-40
2021/03/21 11:12:05;;;;;;;0.82;0.70;;;23.20;39.10;;;;;;5074239;28;20080;-40
2021/03/21 11:14:35;;;;;;;1.27;0.90;;;23.20;39.10;;;;;;5072838;28;20052;-42
2021/03/21 11:17:21;;;;;;;1.30;1.08;;;23.20;39.10;;;;;;5071513;28;20044;-45
2021/03/21 11:19:56;;;;;;;1.13;0.95;;;23.20;39.10;;;;;;5072890;28;20411;-40
2021/03/21 11:22:36;;;;;;;1.58;0.80;;;23.20;39.10;;;;;;5074025;28;20044;-39
2021/03/21 11:25:14;;;;;;;1.00;0.85;;;23.20;39.00;;;;;;5072679;28;20124;-39
2021/03/21 11:27:49;;;;;;;1.20;0.90;;;23.20;39.10;;;;;;5071200;28;20064;-39
2021/03/21 11:30:21;;;;;;;1.30;1.00;;;23.20;39.10;;;;;;5054781;28;20075;-39
2021/03/21 11:32:48;;;;;;;1.25;0.80;;;23.20;39.10;;;;;;5072933;28;20060;-40
2021/03/21 11:35:28;;;;;;;1.40;0.77;;;23.20;39.00;;;;;;5070458;28;20055;-39
2021/03/21 11:37:58;;;;;;;1.55;0.95;;;23.20;39.00;;;;;;5072717;28;20668;-42
2021/03/21 11:40:33;;;;;;;0.77;0.73;;;23.20;39.00;;;;;;5072319;28;20059;-41
2021/03/21 11:43:18;;;;;;;1.50;0.95;;;23.30;39.20;;;;;;5071047;28;20435;-39
2021/03/21 11:45:46;;;;;;;1.25;0.90;;;23.20;39.00;;;;;;5070119;28;20053;-40
2021/03/21 11:48:29;;;;;;;1.27;0.90;;;23.20;39.00;;;;;;5070986;28;20099;-40
2021/03/21 11:50:58;;;;;;;1.35;0.90;;;23.30;39.10;;;;;;5070869;28;20488;-40
2021/03/21 11:53:29;;;;;;;1.27;1.00;;;23.30;39.10;;;;;;5070773;28;20127;-41
2021/03/21 11:56:37;;;;;;;1.80;1.10;;;23.30;39.10;;;;;;5071896;28;20559;-40
2021/03/21 11:59:14;;;;;;;1.17;1.00;;;23.30;39.10;;;;;;5070342;28;20080;-41
2021/03/21 12:01:45;;;;;;;1.20;0.90;;;23.30;39.10;;;;;;5070412;28;20499;-42
2021/03/21 12:04:22;;;;;;;1.00;0.90;;;23.30;39.10;;;;;;5070770;28;20098;-42
2021/03/21 12:06:55;;;;;;;1.35;1.00;;;23.30;39.10;;;;;;5069534;28;20470;-42
2021/03/21 12:09:30;;;;;;;1.52;0.80;;;23.30;39.10;;;;;;5072454;28;20407;-40
2021/03/21 12:12:01;;;;;;;1.23;0.93;;;23.30;39.10;;;;;;5070754;28;20409;-41
2021/03/21 12:14:43;;;;;;;1.20;0.80;;;23.30;39.00;;;;;;5069937;28;20040;-41
2021/03/21 12:17:22;;;;;;;0.80;0.80;;;23.30;39.10;;;;;;5070604;28;20109;-41
2021/03/21 12:19:55;;;;;;;1.20;0.80;;;23.30;39.00;;;;;;5072152;28;20412;-40
2021/03/21 12:22:31;;;;;;;1.27;0.85;;;23.30;39.00;;;;;;5071797;28;20075;-42
2021/03/21 12:25:00;;;;;;;1.15;1.00;;;23.30;39.10;;;;;;5072904;28;20424;-41
2021/03/21 12:27:38;;;;;;;1.13;0.98;;;23.30;39.00;;;;;;5070301;28;20564;-41
2021/03/21 12:30:07;;;;;;;1.63;1.00;;;23.30;39.10;;;;;;5071547;28;20048;-41
2021/03/21 12:32:41;;;;;;;1.45;0.90;;;23.40;39.20;;;;;;5069020;28;20396;-40
2021/03/21 12:35:22;;;;;;;1.05;0.90;;;23.30;39.10;;;;;;5070487;28;20045;-40
2021/03/21 12:37:59;;;;;;;1.13;1.00;;;23.30;39.00;;;;;;5055781;28;20052;-40
2021/03/21 12:40:42;;;;;;;1.10;1.00;;;23.30;39.00;;;;;;5054938;28;20072;-45
2021/03/21 12:43:29;;;;;;;1.33;0.90;;;23.30;39.00;;;;;;5055064;28;20048;-40
2021/03/21 12:46:04;;;;;;;1.35;0.85;;;23.30;39.00;;;;;;5056767;28;20060;-41
2021/03/21 12:48:43;;;;;;;1.92;1.00;;;23.30;39.00;;;;;;5055392;28;20052;-41
2021/03/21 12:51:28;;;;;;;1.23;0.88;;;23.30;39.00;;;;;;5054356;28;20523;-40
2021/03/21 12:53:55;;;;;;;1.45;1.00;;;23.30;39.50;;;;;;5053782;28;20044;-39
2021/03/21 12:56:22;;;;;;;1.25;0.85;;;23.30;39.00;;;;;;5072083;28;20048;-41
2021/03/21 12:58:49;;;;;;;1.50;1.10;;;23.30;39.00;;;;;;5070803;28;20048;-40
2021/03/21 13:01:16;;;;;;;1.13;0.88;;;23.30;39.00;;;;;;5071020;28;20045;-41
2021/03/21 13:03:43;;;;;;;0.95;0.85;;;23.30;39.00;;;;;;5069842;28;20048;-40
2021/03/21 13:06:10;;;;;;;1.65;1.10;;;23.30;39.10;;;;;;5077670;28;20117;-40
2021/03/21 13:08:37;;;;;;;1.20;1.00;;;23.30;39.00;;;;;;5077896;28;20041;-40
2021/03/21 13:11:07;;;;;;;1.05;0.90;;;23.30;39.00;;;;;;5072337;28;20044;-40
2021/03/21 13:13:35;;;;;;;1.00;0.82;;;23.30;39.00;;;;;;5069999;28;20415;-41
2021/03/21 13:16:03;;;;;;;1.40;0.98;;;23.30;39.00;;;;;;5069724;28;20049;-40
2021/03/21 13:18:31;;;;;;;1.05;0.85;;;23.30;39.00;;;;;;5071025;28;20096;-41
2021/03/21 13:21:02;;;;;;;1.00;0.90;;;23.40;39.10;;;;;;5072329;28;20047;-41
2021/03/21 13:23:38;;;;;;;1.10;0.80;;;23.30;39.00;;;;;;5054890;28;20381;-42
2021/03/21 13:26:05;;;;;;;1.20;0.82;;;23.30;39.00;;;;;;5074484;28;20123;-40
2021/03/21 13:28:32;;;;;;;1.17;0.90;;;23.40;39.30;;;;;;5074044;28;20415;-40
2021/03/21 13:31:00;;;;;;;1.27;0.85;;;23.30;39.00;;;;;;5072265;28;20160;-40
2021/03/21 13:33:30;;;;;;;1.25;0.90;;;23.30;39.00;;;;;;5075815;28;20166;-41
2021/03/21 13:35:59;;;;;;;1.45;0.90;;;23.40;39.10;;;;;;5073489;28;20045;-40
2021/03/21 13:38:28;;;;;;;1.65;0.80;;;23.30;39.00;;;;;;5073336;28;20044;-41
2021/03/21 13:40:57;;;;;;;1.08;0.80;;;23.40;39.10;;;;;;5073236;28;20079;-40
2021/03/21 13:43:26;;;;;;;1.27;0.90;;;23.30;39.00;;;;;;5074646;28;20048;-42
2021/03/21 13:45:54;;;;;;;1.45;0.90;;;23.30;39.00;;;;;;5072942;28;20048;-41